Time;durP1;ratioP1;P1;durP2;ratioP2;P2;SDS_P1;SDS_P2;PMS_P1;PMS_P2;Temp;Humidity;BMP_temperature;BMP_pressure;BME280_temperature;BME280_humidity;BME280_pressure;Samples;Min_cycle;Max_cycle;Signal;HPM_P1;HPM_P2
2022/03/05 00:00:54;;;;;;;2.50;2.20;;;;;;;;;;4960835;28;20244;-73
2022/03/05 00:03:27;;;;;;;3.70;2.10;;;;;;;;;;4941347;28;20317;-75
2022/03/05 00:05:53;;;;;;;3.83;2.30;;;;;;;;;;4955081;28;20821;-73
2022/03/05 00:08:22;;;;;;;3.10;2.00;;;;;;;;;;4985461;28;20210;-73
2022/03/05 00:10:47;;;;;;;3.17;1.93;;;;;;;;;;4950922;28;20690;-73
2022/03/05 00:13:18;;;;;;;4.40;2.30;;;;;;;;;;4944280;28;20253;-73
2022/03/05 00:15:48;;;;;;;3.93;1.83;;;;;;;;;;4981455;28;20243;-72
2022/03/05 00:18:16;;;;;;;3.93;2.20;;;;;;;;;;4941242;28;20222;-73
2022/03/05 00:20:44;;;;;;;4.03;2.00;;;;;;;;;;4960884;28;20321;-73
2022/03/05 00:23:11;;;;;;;4.30;2.10;;;;;;;;;;4961312;28;20720;-74
2022/03/05 00:25:37;;;;;;;3.00;2.00;;;;;;;;;;4940358;28;20234;-72
2022/03/05 00:28:07;;;;;;;1.93;1.70;;;;;;;;;;4939032;28;20224;-73
2022/03/05 00:30:33;;;;;;;3.37;1.90;;;;;;;;;;4941857;28;20600;-72
2022/03/05 00:32:59;;;;;;;3.93;2.17;;;;;;;;;;4951851;28;20280;-73
2022/03/05 00:35:26;;;;;;;2.30;1.87;;;;;;;;;;4955346;28;20700;-73
2022/03/05 00:37:54;;;;;;;7.07;2.00;;;;;;;;;;4947361;28;20236;-73
2022/03/05 00:40:22;;;;;;;4.10;2.23;;;;;;;;;;4980610;28;20611;-72
2022/03/05 00:42:50;;;;;;;3.23;2.13;;;;;;;;;;4938171;28;20309;-74
2022/03/05 00:45:15;;;;;;;4.53;2.00;;;;;;;;;;4939109;28;20303;-72
2022/03/05 00:47:47;;;;;;;4.13;2.10;;;;;;;;;;4956553;28;20728;-73
2022/03/05 00:50:12;;;;;;;3.17;1.73;;;;;;;;;;4963194;28;20245;-73
2022/03/05 00:52:42;;;;;;;3.57;2.10;;;;;;;;;;4959990;28;20214;-74
2022/03/05 00:55:11;;;;;;;2.80;1.83;;;;;;;;;;4939057;28;20237;-73
2022/03/05 00:57:36;;;;;;;2.37;1.83;;;;;;;;;;4963535;28;20217;-73
2022/03/05 01:00:10;;;;;;;2.60;1.90;;;;;;;;;;4944136;28;20236;-73
2022/03/05 01:02:41;;;;;;;4.20;2.00;;;;;;;;;;4933748;28;20229;-72
2022/03/05 01:05:08;;;;;;;4.30;1.67;;;;;;;;;;4950196;28;20360;-73
2022/03/05 01:07:38;;;;;;;3.83;1.80;;;;;;;;;;4967951;28;20770;-72
2022/03/05 01:10:07;;;;;;;3.87;1.80;;;;;;;;;;4937737;28;20320;-74
2022/03/05 01:12:33;;;;;;;3.27;1.87;;;;;;;;;;4944855;28;20739;-74
2022/03/05 01:15:03;;;;;;;3.20;1.77;;;;;;;;;;4947160;28;20322;-73
2022/03/05 01:17:35;;;;;;;3.30;1.80;;;;;;;;;;4927406;28;20234;-74
2022/03/05 01:20:04;;;;;;;5.47;2.10;;;;;;;;;;4963878;28;20229;-74
2022/03/05 01:22:32;;;;;;;1.80;1.57;;;;;;;;;;4960769;28;20234;-73
2022/03/05 01:24:59;;;;;;;4.53;1.80;;;;;;;;;;4990745;28;20280;-74
2022/03/05 01:27:25;;;;;;;3.67;1.83;;;;;;;;;;4951872;28;20217;-73
2022/03/05 01:29:51;;;;;;;4.83;2.23;;;;;;;;;;4956505;28;20303;-74
2022/03/05 01:32:19;;;;;;;3.00;1.90;;;;;;;;;;4956553;28;20294;-75
2022/03/05 01:34:45;;;;;;;2.77;1.80;;;;;;;;;;4968436;28;20602;-73
2022/03/05 01:37:15;;;;;;;3.53;2.03;;;;;;;;;;4972491;28;20214;-74
2022/03/05 01:39:43;;;;;;;3.60;1.83;;;;;;;;;;4947566;28;20225;-73
2022/03/05 01:42:11;;;;;;;4.17;1.70;;;;;;;;;;4942914;28;20233;-73
2022/03/05 01:44:39;;;;;;;3.53;1.90;;;;;;;;;;4948996;28;20713;-74
2022/03/05 01:47:10;;;;;;;3.17;1.80;;;;;;;;;;4967848;28;20233;-73
2022/03/05 01:49:36;;;;;;;4.23;1.90;;;;;;;;;;4955593;28;20312;-73
2022/03/05 01:52:01;;;;;;;3.90;1.93;;;;;;;;;;4972726;28;20309;-75
2022/03/05 01:54:32;;;;;;;2.47;1.80;;;;;;;;;;4959229;28;20251;-74
2022/03/05 01:57:00;;;;;;;3.57;2.00;;;;;;;;;;4954515;28;20816;-73
2022/03/05 01:59:27;;;;;;;2.57;1.90;;;;;;;;;;4980436;28;20218;-74
2022/03/05 02:01:53;;;;;;;6.17;2.00;;;;;;;;;;4963816;28;20245;-74
2022/03/05 02:04:21;;;;;;;3.07;2.20;;;;;;;;;;4940016;28;20229;-73
2022/03/05 02:06:47;;;;;;;4.10;2.10;;;;;;;;;;4963131;28;20578;-72
2022/03/05 02:09:14;;;;;;;5.00;2.23;;;;;;;;;;4953140;28;20241;-73
2022/03/05 02:11:42;;;;;;;3.23;1.93;;;;;;;;;;4954998;28;20875;-72
2022/03/05 02:14:10;;;;;;;3.20;2.03;;;;;;;;;;4935324;28;20213;-72
2022/03/05 02:16:40;;;;;;;3.40;1.90;;;;;;;;;;4956716;28;20230;-72
2022/03/05 02:19:06;;;;;;;5.33;2.00;;;;;;;;;;4945829;28;20228;-72
2022/03/05 02:21:31;;;;;;;4.80;1.90;;;;;;;;;;4942047;28;20234;-73
2022/03/05 02:23:56;;;;;;;2.57;1.80;;;;;;;;;;4943452;28;20221;-73
2022/03/05 02:26:22;;;;;;;3.07;1.90;;;;;;;;;;4957340;28;20253;-73
2022/03/05 02:28:50;;;;;;;5.17;2.00;;;;;;;;;;4958782;28;20222;-73
2022/03/05 02:31:19;;;;;;;4.57;2.00;;;;;;;;;;4973041;28;20238;-73
2022/03/05 02:33:47;;;;;;;3.80;1.70;;;;;;;;;;4924624;28;21469;-73
2022/03/05 02:36:15;;;;;;;2.93;1.63;;;;;;;;;;4946515;28;20213;-73
2022/03/05 02:38:40;;;;;;;2.40;1.70;;;;;;;;;;4957847;28;20230;-73
2022/03/05 02:41:20;;;;;;;2.37;1.93;;;;;;;;;;4939771;28;20236;-75
2022/03/05 02:43:46;;;;;;;4.13;1.80;;;;;;;;;;4955994;28;20228;-73
2022/03/05 02:46:11;;;;;;;4.10;2.10;;;;;;;;;;4981360;28;20229;-73
2022/03/05 02:48:39;;;;;;;5.17;1.90;;;;;;;;;;4942298;28;20235;-73
2022/03/05 02:51:06;;;;;;;3.30;1.80;;;;;;;;;;4961903;28;20218;-72
2022/03/05 02:53:35;;;;;;;5.17;1.90;;;;;;;;;;4980080;28;20226;-73
2022/03/05 02:56:03;;;;;;;3.73;1.90;;;;;;;;;;4946393;28;20225;-72
2022/03/05 02:58:29;;;;;;;3.47;1.93;;;;;;;;;;4943219;28;20222;-72
2022/03/05 03:01:01;;;;;;;4.73;2.10;;;;;;;;;;4964296;28;20230;-72
2022/03/05 03:03:27;;;;;;;2.77;1.80;;;;;;;;;;4957190;28;20690;-72
2022/03/05 03:05:52;;;;;;;3.47;2.13;;;;;;;;;;4985870;28;20229;-72
2022/03/05 03:08:25;;;;;;;3.00;1.87;;;;;;;;;;4965609;28;20592;-72
2022/03/05 03:10:52;;;;;;;2.53;1.93;;;;;;;;;;4946220;28;20222;-72
2022/03/05 03:13:20;;;;;;;2.83;2.03;;;;;;;;;;4935699;28;20224;-72
2022/03/05 03:15:45;;;;;;;3.60;2.23;;;;;;;;;;4986462;28;20218;-72
2022/03/05 03:18:18;;;;;;;4.33;2.00;;;;;;;;;;4923841;28;20226;-72
2022/03/05 03:20:44;;;;;;;4.17;2.00;;;;;;;;;;4936965;28;20240;-73
2022/03/05 03:23:09;;;;;;;4.10;1.90;;;;;;;;;;4954825;28;20225;-72
2022/03/05 03:25:40;;;;;;;3.03;2.10;;;;;;;;;;4951866;28;20233;-73
2022/03/05 03:28:08;;;;;;;3.63;2.20;;;;;;;;;;4952118;28;20222;-72
2022/03/05 03:30:34;;;;;;;2.77;2.07;;;;;;;;;;4939845;28;20321;-71
2022/03/05 03:33:02;;;;;;;4.30;2.00;;;;;;;;;;4961767;28;20312;-73
2022/03/05 03:35:27;;;;;;;3.80;2.00;;;;;;;;;;4965462;28;20241;-73
2022/03/05 03:37:57;;;;;;;2.93;2.00;;;;;;;;;;4981040;28;20217;-74
2022/03/05 03:40:23;;;;;;;5.70;2.27;;;;;;;;;;4987678;28;20229;-72
2022/03/05 03:42:49;;;;;;;5.77;1.80;;;;;;;;;;4986073;28;20597;-72
2022/03/05 03:45:15;;;;;;;4.23;1.97;;;;;;;;;;4943768;28;20233;-72
2022/03/05 03:47:45;;;;;;;5.57;2.20;;;;;;;;;;4943896;28;20238;-72
2022/03/05 03:50:13;;;;;;;6.50;2.20;;;;;;;;;;4955457;28;20257;-73
2022/03/05 03:52:41;;;;;;;2.67;1.80;;;;;;;;;;4965515;28;20312;-72
2022/03/05 03:55:11;;;;;;;5.17;2.10;;;;;;;;;;4938753;28;20228;-73
2022/03/05 03:57:39;;;;;;;3.50;2.07;;;;;;;;;;4972875;28;20240;-72
2022/03/05 04:00:09;;;;;;;6.43;2.20;;;;;;;;;;4939366;28;20312;-72
2022/03/05 04:02:39;;;;;;;2.43;1.90;;;;;;;;;;4958453;28;20238;-72
2022/03/05 04:05:10;;;;;;;3.57;1.70;;;;;;;;;;4941788;28;20236;-72
2022/03/05 04:10:23;;;;;;;3.43;2.23;;;;;;;;;;4972234;28;20217;-72
2022/03/05 04:12:48;;;;;;;6.77;2.13;;;;;;;;;;4970089;28;20229;-73
2022/03/05 04:15:17;;;;;;;4.33;2.17;;;;;;;;;;4951819;28;20607;-72
2022/03/05 04:17:43;;;;;;;4.13;2.07;;;;;;;;;;4944668;28;20325;-72
2022/03/05 04:20:09;;;;;;;3.57;2.13;;;;;;;;;;4980556;28;20380;-73
2022/03/05 04:22:34;;;;;;;4.73;2.17;;;;;;;;;;4953766;28;20334;-73
2022/03/05 04:25:00;;;;;;;3.93;1.90;;;;;;;;;;4938853;28;20249;-73
2022/03/05 04:27:26;;;;;;;3.83;1.97;;;;;;;;;;4940092;28;20645;-73
2022/03/05 04:29:51;;;;;;;5.33;1.93;;;;;;;;;;4955312;28;20316;-73
2022/03/05 04:32:19;;;;;;;2.10;1.80;;;;;;;;;;4949796;28;20230;-72
2022/03/05 04:34:50;;;;;;;3.47;2.10;;;;;;;;;;4938440;28;20234;-72
2022/03/05 04:37:18;;;;;;;4.93;2.07;;;;;;;;;;4938139;28;20210;-74
2022/03/05 04:39:48;;;;;;;5.13;2.10;;;;;;;;;;4941894;28;20237;-71
2022/03/05 04:42:14;;;;;;;4.43;2.10;;;;;;;;;;4949270;28;20234;-73
2022/03/05 04:44:39;;;;;;;3.90;2.00;;;;;;;;;;4968325;28;20283;-73
2022/03/05 04:47:05;;;;;;;3.10;1.90;;;;;;;;;;4954416;28;20312;-72
2022/03/05 04:49:31;;;;;;;3.63;1.83;;;;;;;;;;4938568;28;20710;-71
2022/03/05 04:51:58;;;;;;;3.47;1.97;;;;;;;;;;4978131;28;20229;-72
2022/03/05 04:54:25;;;;;;;3.43;2.20;;;;;;;;;;4961933;28;20695;-73
2022/03/05 04:56:56;;;;;;;5.03;2.30;;;;;;;;;;4962598;28;20291;-73
2022/03/05 04:59:24;;;;;;;2.30;1.93;;;;;;;;;;4953829;28;20309;-73
2022/03/05 05:01:52;;;;;;;3.63;2.10;;;;;;;;;;4976428;28;20225;-73
2022/03/05 05:04:22;;;;;;;4.73;2.33;;;;;;;;;;4985754;28;20280;-73
2022/03/05 05:06:50;;;;;;;3.33;2.00;;;;;;;;;;4946528;28;20708;-73
2022/03/05 05:09:16;;;;;;;4.10;2.03;;;;;;;;;;4978559;28;20217;-72
2022/03/05 05:11:42;;;;;;;3.43;2.30;;;;;;;;;;4986648;28;20308;-73
2022/03/05 05:14:10;;;;;;;5.80;2.10;;;;;;;;;;4987931;28;20260;-72
2022/03/05 05:16:36;;;;;;;4.43;2.00;;;;;;;;;;4949094;28;20226;-73
2022/03/05 05:21:46;;;;;;;4.20;2.20;;;;;;;;;;4972514;28;20261;-73
2022/03/05 05:24:11;;;;;;;4.47;2.40;;;;;;;;;;4960148;28;20378;-73
2022/03/05 05:26:37;;;;;;;3.57;2.13;;;;;;;;;;4980004;28;20237;-73
2022/03/05 05:29:05;;;;;;;4.73;2.40;;;;;;;;;;5005367;28;20235;-74
2022/03/05 05:31:30;;;;;;;3.37;2.37;;;;;;;;;;4977125;28;20244;-73
2022/03/05 05:33:58;;;;;;;3.97;2.60;;;;;;;;;;4956533;28;20257;-73
2022/03/05 05:36:26;;;;;;;4.67;2.40;;;;;;;;;;4954425;28;20776;-74
2022/03/05 05:38:54;;;;;;;6.87;2.43;;;;;;;;;;4982916;28;20233;-72
2022/03/05 05:41:22;;;;;;;5.83;2.60;;;;;;;;;;4981495;28;20245;-72
2022/03/05 05:43:47;;;;;;;6.37;2.50;;;;;;;;;;4964182;28;20241;-71
2022/03/05 05:46:15;;;;;;;4.20;2.13;;;;;;;;;;4944996;28;20687;-71
2022/03/05 05:48:43;;;;;;;5.10;2.20;;;;;;;;;;4981588;28;20262;-73
2022/03/05 05:51:09;;;;;;;2.70;2.50;;;;;;;;;;4943384;28;20232;-72
2022/03/05 05:53:36;;;;;;;5.00;2.40;;;;;;;;;;4942159;28;20232;-71
2022/03/05 05:56:01;;;;;;;4.10;2.63;;;;;;;;;;4965470;28;20225;-72
2022/03/05 05:58:30;;;;;;;5.70;2.77;;;;;;;;;;4966066;28;20230;-72
2022/03/05 06:00:55;;;;;;;6.00;2.90;;;;;;;;;;4981320;28;20238;-74
2022/03/05 06:03:24;;;;;;;4.53;2.50;;;;;;;;;;4980542;28;20234;-73
2022/03/05 06:05:54;;;;;;;3.97;2.23;;;;;;;;;;4965195;28;20683;-74
2022/03/05 06:08:20;;;;;;;3.93;2.30;;;;;;;;;;4968092;28;20217;-72
2022/03/05 06:10:46;;;;;;;3.67;2.43;;;;;;;;;;4982523;28;20205;-72
2022/03/05 06:13:11;;;;;;;6.57;2.20;;;;;;;;;;4985543;28;20223;-72
2022/03/05 06:15:41;;;;;;;3.23;2.47;;;;;;;;;;4952554;28;20917;-72
2022/03/05 06:18:06;;;;;;;3.97;2.67;;;;;;;;;;4986000;28;20228;-72
2022/03/05 06:20:32;;;;;;;4.53;2.80;;;;;;;;;;4947392;28;20230;-73
2022/03/05 06:22:57;;;;;;;3.73;2.63;;;;;;;;;;4948142;28;20237;-72
2022/03/05 06:25:24;;;;;;;4.13;2.50;;;;;;;;;;4949251;28;20736;-71
2022/03/05 06:27:51;;;;;;;4.10;2.50;;;;;;;;;;4970448;28;20226;-72
2022/03/05 06:30:17;;;;;;;4.13;2.50;;;;;;;;;;4959128;28;20602;-72
2022/03/05 06:32:43;;;;;;;4.00;2.23;;;;;;;;;;4983518;28;20218;-71
2022/03/05 06:35:08;;;;;;;4.77;2.80;;;;;;;;;;4975540;28;20238;-74
2022/03/05 06:37:34;;;;;;;3.33;2.27;;;;;;;;;;4947596;28;20236;-70
2022/03/05 06:40:01;;;;;;;5.97;2.53;;;;;;;;;;4944533;28;20321;-71
2022/03/05 06:42:28;;;;;;;4.10;2.30;;;;;;;;;;4940344;28;20288;-72
2022/03/05 06:44:54;;;;;;;4.50;2.57;;;;;;;;;;4941203;28;20284;-70
2022/03/05 06:47:22;;;;;;;6.03;2.80;;;;;;;;;;4980332;28;20222;-72
2022/03/05 06:49:50;;;;;;;4.00;2.47;;;;;;;;;;4978898;28;20306;-72
2022/03/05 06:52:15;;;;;;;3.93;2.40;;;;;;;;;;4963676;28;20301;-73
2022/03/05 06:54:41;;;;;;;4.40;2.43;;;;;;;;;;4939812;28;20260;-72
2022/03/05 06:57:10;;;;;;;4.23;2.70;;;;;;;;;;4948516;28;20229;-72
2022/03/05 06:59:35;;;;;;;4.53;2.50;;;;;;;;;;4964718;28;20693;-71
2022/03/05 07:02:01;;;;;;;4.13;2.87;;;;;;;;;;4947465;28;20234;-71
2022/03/05 07:04:29;;;;;;;3.73;2.50;;;;;;;;;;4964532;28;20217;-69
2022/03/05 07:06:57;;;;;;;4.37;2.40;;;;;;;;;;4980483;28;20276;-72
2022/03/05 07:09:25;;;;;;;3.93;2.50;;;;;;;;;;4961412;28;20233;-72
2022/03/05 07:11:51;;;;;;;5.93;2.53;;;;;;;;;;4979808;28;20228;-72
2022/03/05 07:14:19;;;;;;;5.47;2.80;;;;;;;;;;4962584;28;20222;-72
2022/03/05 07:16:44;;;;;;;3.87;2.43;;;;;;;;;;4940049;28;20229;-69
2022/03/05 07:19:10;;;;;;;4.13;2.70;;;;;;;;;;4983285;28;20217;-72
2022/03/05 07:21:37;;;;;;;3.97;2.57;;;;;;;;;;4970569;28;20325;-72
2022/03/05 07:24:07;;;;;;;5.70;2.60;;;;;;;;;;4967677;28;20217;-73
2022/03/05 07:26:33;;;;;;;5.30;2.50;;;;;;;;;;4963190;28;20304;-71
2022/03/05 07:28:58;;;;;;;5.57;2.70;;;;;;;;;;4950409;28;20623;-73
2022/03/05 07:31:23;;;;;;;6.67;3.03;;;;;;;;;;4938604;28;20308;-72
2022/03/05 07:33:51;;;;;;;5.00;2.87;;;;;;;;;;4949140;28;20222;-72
2022/03/05 07:36:17;;;;;;;5.00;2.70;;;;;;;;;;4949349;28;20302;-72
2022/03/05 07:38:45;;;;;;;4.30;2.77;;;;;;;;;;4959834;28;20666;-72
2022/03/05 07:41:11;;;;;;;5.60;3.20;;;;;;;;;;4966831;28;20233;-72
2022/03/05 07:43:41;;;;;;;3.57;2.90;;;;;;;;;;4964371;28;20229;-71
2022/03/05 07:46:09;;;;;;;5.73;2.97;;;;;;;;;;4951012;28;20665;-71
2022/03/05 07:48:35;;;;;;;3.60;3.00;;;;;;;;;;4970674;28;20236;-71
2022/03/05 07:51:03;;;;;;;6.37;2.73;;;;;;;;;;4979706;28;20705;-71
2022/03/05 07:53:31;;;;;;;5.33;2.83;;;;;;;;;;4953169;28;20236;-73
2022/03/05 07:55:59;;;;;;;5.60;3.10;;;;;;;;;;4940940;28;20317;-71
2022/03/05 07:58:25;;;;;;;4.63;3.00;;;;;;;;;;4932588;28;20233;-73
2022/03/05 08:00:50;;;;;;;4.40;3.23;;;;;;;;;;4979023;28;20233;-71
2022/03/05 08:03:16;;;;;;;4.87;2.90;;;;;;;;;;4942237;28;20226;-73
2022/03/05 08:05:43;;;;;;;4.37;2.83;;;;;;;;;;4965371;28;20317;-72
2022/03/05 08:08:11;;;;;;;5.00;3.00;;;;;;;;;;4942496;28;20225;-71
2022/03/05 08:10:36;;;;;;;4.20;2.80;;;;;;;;;;4968142;28;20253;-71
2022/03/05 08:13:02;;;;;;;5.57;3.00;;;;;;;;;;4983892;28;20240;-71
2022/03/05 08:15:28;;;;;;;4.43;3.10;;;;;;;;;;4971426;28;20333;-72
2022/03/05 08:18:00;;;;;;;4.73;3.13;;;;;;;;;;4979677;28;20214;-71
2022/03/05 08:20:27;;;;;;;7.27;3.13;;;;;;;;;;4950464;28;20314;-71
2022/03/05 08:22:54;;;;;;;4.37;3.07;;;;;;;;;;4942225;28;20648;-71
2022/03/05 08:25:22;;;;;;;4.87;2.80;;;;;;;;;;4940750;28;20279;-71
2022/03/05 08:27:48;;;;;;;4.40;3.20;;;;;;;;;;4987543;28;20229;-71
2022/03/05 08:30:14;;;;;;;3.97;3.10;;;;;;;;;;4985743;28;20221;-71
2022/03/05 08:32:40;;;;;;;5.83;3.30;;;;;;;;;;4948568;28;20226;-71
2022/03/05 08:35:07;;;;;;;4.63;3.20;;;;;;;;;;4943763;28;20236;-70
2022/03/05 08:37:34;;;;;;;4.37;3.40;;;;;;;;;;4981569;28;20225;-72
2022/03/05 08:40:00;;;;;;;4.37;3.23;;;;;;;;;;4970855;28;20229;-71
2022/03/05 08:42:26;;;;;;;7.20;3.57;;;;;;;;;;4957533;28;20232;-71
2022/03/05 08:44:54;;;;;;;4.83;3.50;;;;;;;;;;4940097;28;20729;-74
2022/03/05 08:47:20;;;;;;;5.30;3.30;;;;;;;;;;4979679;28;20300;-75
2022/03/05 08:49:45;;;;;;;6.03;3.47;;;;;;;;;;4963889;28;20764;-72
2022/03/05 08:52:11;;;;;;;4.43;3.40;;;;;;;;;;4966226;28;20332;-72
2022/03/05 08:54:37;;;;;;;4.63;3.67;;;;;;;;;;4968007;28;20222;-71
2022/03/05 08:57:03;;;;;;;6.17;3.70;;;;;;;;;;4939200;28;20276;-70
2022/03/05 08:59:31;;;;;;;5.47;3.33;;;;;;;;;;4968145;28;20229;-72
2022/03/05 09:02:02;;;;;;;4.37;3.07;;;;;;;;;;4962646;28;20616;-70
2022/03/05 09:04:34;;;;;;;6.63;3.47;;;;;;;;;;4979187;28;20674;-71
2022/03/05 09:07:04;;;;;;;5.27;3.57;;;;;;;;;;4970166;28;20213;-72
2022/03/05 09:09:30;;;;;;;4.63;3.60;;;;;;;;;;4957168;28;20229;-72
2022/03/05 09:11:57;;;;;;;4.27;3.73;;;;;;;;;;4952713;28;20747;-72
2022/03/05 09:14:25;;;;;;;4.87;3.50;;;;;;;;;;4978463;28;20230;-72
2022/03/05 09:16:51;;;;;;;5.00;3.50;;;;;;;;;;4944032;28;20213;-72
2022/03/05 09:19:18;;;;;;;3.43;3.13;;;;;;;;;;4965618;28;20726;-71
2022/03/05 09:21:44;;;;;;;3.37;3.07;;;;;;;;;;4970020;28;20313;-73
2022/03/05 09:24:12;;;;;;;4.23;3.30;;;;;;;;;;4961099;28;20325;-72
2022/03/05 09:26:37;;;;;;;4.57;3.63;;;;;;;;;;4982299;28;20592;-71
2022/03/05 09:29:07;;;;;;;3.70;3.40;;;;;;;;;;4940896;28;20311;-71
2022/03/05 09:31:33;;;;;;;4.13;3.40;;;;;;;;;;4966565;28;20249;-72
2022/03/05 09:33:58;;;;;;;4.63;3.20;;;;;;;;;;4970273;28;20589;-71
2022/03/05 09:36:26;;;;;;;4.20;3.27;;;;;;;;;;4984564;28;20297;-71
2022/03/05 09:38:54;;;;;;;3.50;3.20;;;;;;;;;;4967327;28;20301;-71
2022/03/05 09:41:19;;;;;;;4.93;3.60;;;;;;;;;;4943425;28;20224;-72
2022/03/05 09:43:45;;;;;;;4.37;3.73;;;;;;;;;;4966631;28;20225;-72
2022/03/05 09:46:13;;;;;;;4.97;4.00;;;;;;;;;;4971188;28;20298;-72
2022/03/05 09:48:41;;;;;;;6.30;3.80;;;;;;;;;;4943887;28;20801;-72
2022/03/05 09:51:09;;;;;;;4.83;3.90;;;;;;;;;;4952298;28;20234;-74
2022/03/05 09:53:34;;;;;;;5.83;4.03;;;;;;;;;;4961402;28;20725;-72
2022/03/05 09:56:00;;;;;;;5.27;3.60;;;;;;;;;;4952286;28;20234;-70
2022/03/05 09:58:28;;;;;;;4.07;3.43;;;;;;;;;;4967175;28;20225;-71
2022/03/05 10:00:54;;;;;;;5.60;4.00;;;;;;;;;;4959517;28;20230;-70
2022/03/05 10:03:22;;;;;;;4.17;3.53;;;;;;;;;;4984144;28;20209;-72
2022/03/05 10:05:48;;;;;;;5.17;3.60;;;;;;;;;;4968714;28;20329;-72
2022/03/05 10:08:17;;;;;;;4.33;3.70;;;;;;;;;;4953700;28;20214;-72
2022/03/05 10:10:51;;;;;;;5.90;3.47;;;;;;;;;;4950981;28;20786;-72
2022/03/05 10:13:21;;;;;;;4.80;3.50;;;;;;;;;;4956938;28;20226;-71
2022/03/05 10:15:47;;;;;;;4.97;3.60;;;;;;;;;;4966381;28;20313;-72
2022/03/05 10:18:13;;;;;;;5.63;3.30;;;;;;;;;;4969951;28;20671;-72
2022/03/05 10:20:43;;;;;;;4.63;4.00;;;;;;;;;;4953791;28;20598;-72
2022/03/05 10:23:09;;;;;;;4.90;4.00;;;;;;;;;;4964690;28;20229;-72
2022/03/05 10:25:49;;;;;;;5.00;3.80;;;;;;;;;;4943768;28;20225;-72
2022/03/05 10:28:15;;;;;;;4.87;3.80;;;;;;;;;;4930905;28;20229;-72
2022/03/05 10:30:43;;;;;;;4.67;4.17;;;;;;;;;;4981998;28;20716;-73
2022/03/05 10:33:09;;;;;;;4.33;3.93;;;;;;;;;;4939512;28;20226;-73
2022/03/05 10:35:36;;;;;;;5.00;3.67;;;;;;;;;;4960275;28;20321;-72
2022/03/05 10:38:02;;;;;;;4.50;3.77;;;;;;;;;;4950143;28;20285;-72
2022/03/05 10:40:33;;;;;;;4.30;3.40;;;;;;;;;;4943289;28;20230;-74
2022/03/05 10:43:00;;;;;;;5.17;3.67;;;;;;;;;;4934855;28;20244;-71
2022/03/05 10:45:29;;;;;;;4.00;3.53;;;;;;;;;;4939042;28;20616;-74
2022/03/05 10:47:55;;;;;;;5.10;3.87;;;;;;;;;;4944187;28;20237;-71
2022/03/05 10:50:22;;;;;;;4.80;3.77;;;;;;;;;;4949354;28;20225;-71
2022/03/05 10:52:52;;;;;;;4.37;3.83;;;;;;;;;;4965314;28;20233;-72
2022/03/05 10:55:24;;;;;;;4.67;3.93;;;;;;;;;;4987210;28;20228;-72
2022/03/05 10:58:13;;;;;;;4.97;3.50;;;;;;;;;;4944048;28;20760;-72
2022/03/05 11:00:45;;;;;;;4.93;3.80;;;;;;;;;;4975468;28;20226;-72
2022/03/05 11:03:10;;;;;;;4.07;3.30;;;;;;;;;;4986369;28;20275;-73
2022/03/05 11:05:39;;;;;;;4.63;3.87;;;;;;;;;;4960609;28;20707;-72
2022/03/05 11:08:05;;;;;;;4.90;3.87;;;;;;;;;;4941423;28;20214;-74
2022/03/05 11:10:31;;;;;;;3.90;3.50;;;;;;;;;;4950262;28;20706;-73
2022/03/05 11:12:59;;;;;;;3.83;3.50;;;;;;;;;;4927379;28;20271;-73
2022/03/05 11:15:29;;;;;;;4.07;3.67;;;;;;;;;;4941887;28;20241;-74
2022/03/05 11:18:01;;;;;;;5.97;3.97;;;;;;;;;;4941186;28;20225;-72
2022/03/05 11:20:30;;;;;;;4.87;3.50;;;;;;;;;;4954795;28;20717;-72
2022/03/05 11:22:55;;;;;;;3.80;3.10;;;;;;;;;;4953495;28;20600;-72
2022/03/05 11:25:27;;;;;;;4.57;3.80;;;;;;;;;;4952365;28;20643;-72
2022/03/05 11:27:57;;;;;;;4.73;3.60;;;;;;;;;;4928487;28;20221;-72
2022/03/05 11:30:23;;;;;;;4.73;3.60;;;;;;;;;;4947433;28;20230;-72
2022/03/05 11:32:51;;;;;;;4.03;3.50;;;;;;;;;;4954588;28;20252;-72
2022/03/05 11:35:28;;;;;;;3.87;3.40;;;;;;;;;;4974205;28;20221;-72
2022/03/05 11:37:58;;;;;;;5.13;3.70;;;;;;;;;;4942240;28;20238;-72
2022/03/05 11:40:43;;;;;;;4.23;3.77;;;;;;;;;;4960320;28;20301;-73
2022/03/05 11:43:15;;;;;;;4.47;3.37;;;;;;;;;;4984572;28;20225;-72
2022/03/05 11:46:04;;;;;;;4.10;3.57;;;;;;;;;;4967814;28;20309;-72
2022/03/05 11:48:29;;;;;;;4.00;3.33;;;;;;;;;;4970224;28;20226;-73
2022/03/05 11:51:01;;;;;;;4.37;3.50;;;;;;;;;;4984923;28;20229;-73
2022/03/05 11:53:27;;;;;;;4.77;3.80;;;;;;;;;;4940885;28;20240;-72
2022/03/05 11:55:52;;;;;;;3.73;3.43;;;;;;;;;;4956753;28;20237;-72
2022/03/05 11:58:24;;;;;;;4.80;3.70;;;;;;;;;;4940651;28;20253;-72
2022/03/05 12:00:52;;;;;;;4.67;3.53;;;;;;;;;;4953371;28;20225;-72
2022/03/05 12:03:43;;;;;;;4.47;3.60;;;;;;;;;;4982906;28;20225;-73
2022/03/05 12:06:10;;;;;;;4.10;3.70;;;;;;;;;;4942407;28;20226;-73
2022/03/05 12:08:38;;;;;;;5.87;3.70;;;;;;;;;;4953413;28;20221;-72
2022/03/05 12:11:10;;;;;;;4.73;3.67;;;;;;;;;;4951349;28;20225;-72
2022/03/05 12:13:48;;;;;;;4.40;3.30;;;;;;;;;;4957020;28;20241;-73
2022/03/05 12:16:19;;;;;;;4.40;3.77;;;;;;;;;;4946092;28;20217;-72
2022/03/05 12:18:49;;;;;;;5.47;3.63;;;;;;;;;;4958773;28;20213;-72
2022/03/05 12:21:45;;;;;;;4.33;3.50;;;;;;;;;;4955118;28;20299;-73
2022/03/05 12:24:13;;;;;;;4.20;3.27;;;;;;;;;;4950727;28;20209;-71
2022/03/05 12:26:41;;;;;;;3.87;3.40;;;;;;;;;;4957290;28;20273;-72
2022/03/05 12:29:09;;;;;;;4.27;3.20;;;;;;;;;;4936410;28;20720;-74
2022/03/05 12:31:41;;;;;;;5.63;3.40;;;;;;;;;;4959990;28;20276;-72
2022/03/05 12:34:10;;;;;;;3.70;3.30;;;;;;;;;;4938598;28;20217;-72
2022/03/05 12:36:44;;;;;;;4.10;3.10;;;;;;;;;;4978905;28;20308;-72
2022/03/05 12:39:14;;;;;;;4.13;3.43;;;;;;;;;;4940537;28;20679;-72
2022/03/05 12:41:41;;;;;;;3.53;3.20;;;;;;;;;;4958590;28;20233;-73
2022/03/05 12:44:11;;;;;;;3.93;3.40;;;;;;;;;;4965972;28;20216;-72
2022/03/05 12:46:37;;;;;;;3.90;3.37;;;;;;;;;;4942217;28;20244;-73
2022/03/05 12:49:08;;;;;;;4.13;3.67;;;;;;;;;;4966979;28;20265;-70
2022/03/05 12:51:36;;;;;;;3.80;3.40;;;;;;;;;;4941166;28;20225;-75
2022/03/05 12:54:02;;;;;;;3.83;3.40;;;;;;;;;;4970849;28;20249;-73
2022/03/05 12:56:28;;;;;;;3.87;3.47;;;;;;;;;;4948915;28;20289;-73
2022/03/05 12:58:57;;;;;;;4.60;3.67;;;;;;;;;;4958974;28;20225;-73
2022/03/05 13:01:23;;;;;;;4.27;3.63;;;;;;;;;;4938752;28;20371;-73
2022/03/05 13:03:49;;;;;;;3.87;3.47;;;;;;;;;;4948798;28;20304;-74
2022/03/05 13:06:17;;;;;;;4.87;3.60;;;;;;;;;;4940678;28;20222;-73
2022/03/05 13:08:48;;;;;;;3.93;3.50;;;;;;;;;;4939698;28;20256;-73
2022/03/05 13:11:14;;;;;;;4.77;3.50;;;;;;;;;;4968348;28;20237;-73
2022/03/05 13:13:51;;;;;;;3.87;3.40;;;;;;;;;;4925636;28;20222;-74
2022/03/05 13:16:27;;;;;;;4.13;3.53;;;;;;;;;;4966968;28;20228;-74
2022/03/05 13:19:02;;;;;;;5.17;3.90;;;;;;;;;;4950671;28;20228;-72
2022/03/05 13:21:28;;;;;;;4.70;3.77;;;;;;;;;;4942702;28;20243;-74
2022/03/05 13:23:56;;;;;;;4.50;3.60;;;;;;;;;;4945102;28;20229;-72
2022/03/05 13:26:22;;;;;;;3.97;3.50;;;;;;;;;;4963116;28;22635;-74
2022/03/05 13:28:51;;;;;;;3.80;3.50;;;;;;;;;;4963780;28;20225;-76
2022/03/05 13:31:16;;;;;;;4.07;3.50;;;;;;;;;;4969620;28;20306;-73
2022/03/05 13:33:50;;;;;;;5.37;3.97;;;;;;;;;;4989823;28;20320;-74
2022/03/05 13:36:31;;;;;;;4.40;3.77;;;;;;;;;;4941806;28;20229;-75
2022/03/05 13:39:15;;;;;;;4.50;3.47;;;;;;;;;;4976718;28;20214;-76
2022/03/05 13:41:48;;;;;;;5.37;3.63;;;;;;;;;;4991500;28;20233;-73
2022/03/05 13:44:33;;;;;;;4.17;3.77;;;;;;;;;;4967898;28;20298;-77
2022/03/05 13:47:01;;;;;;;4.93;3.53;;;;;;;;;;4962706;28;20241;-73
2022/03/05 13:49:29;;;;;;;4.23;3.80;;;;;;;;;;4942207;28;20217;-73
2022/03/05 13:51:56;;;;;;;4.90;3.93;;;;;;;;;;4956373;28;20661;-74
2022/03/05 13:54:39;;;;;;;4.60;3.90;;;;;;;;;;4944158;28;20225;-74
2022/03/05 13:57:28;;;;;;;4.43;3.37;;;;;;;;;;4966215;28;20319;-74
2022/03/05 13:59:56;;;;;;;4.10;3.00;;;;;;;;;;4958265;28;20233;-73
2022/03/05 14:02:29;;;;;;;5.47;3.80;;;;;;;;;;4951376;28;20300;-74
2022/03/05 14:05:01;;;;;;;5.00;3.60;;;;;;;;;;4941684;28;20236;-74
2022/03/05 14:07:27;;;;;;;4.43;3.90;;;;;;;;;;4963214;28;20671;-74
2022/03/05 14:09:55;;;;;;;4.37;3.57;;;;;;;;;;4957485;28;20320;-74
2022/03/05 14:12:24;;;;;;;4.23;3.83;;;;;;;;;;4944537;28;20300;-74
2022/03/05 14:14:59;;;;;;;3.73;3.37;;;;;;;;;;4962450;28;20295;-74
2022/03/05 14:17:29;;;;;;;3.73;3.43;;;;;;;;;;4942304;28;20229;-74
2022/03/05 14:20:13;;;;;;;3.63;3.30;;;;;;;;;;4940865;28;20229;-74
2022/03/05 14:23:06;;;;;;;3.70;3.37;;;;;;;;;;4963950;28;20234;-74
2022/03/05 14:25:49;;;;;;;3.77;3.47;;;;;;;;;;4944835;28;20308;-73
2022/03/05 14:28:22;;;;;;;3.93;3.53;;;;;;;;;;4944788;28;20240;-74
2022/03/05 14:30:50;;;;;;;4.13;3.63;;;;;;;;;;4937864;28;20226;-74
2022/03/05 14:33:18;;;;;;;4.40;3.80;;;;;;;;;;4942584;28;20233;-74
2022/03/05 14:35:46;;;;;;;4.37;3.73;;;;;;;;;;4967135;28;20234;-73
2022/03/05 14:38:14;;;;;;;4.00;3.60;;;;;;;;;;4949119;28;20229;-74
2022/03/05 14:40:42;;;;;;;3.80;3.50;;;;;;;;;;4977823;28;20245;-74
2022/03/05 14:43:10;;;;;;;4.20;3.80;;;;;;;;;;4971072;28;20249;-73
2022/03/05 14:45:39;;;;;;;4.43;3.70;;;;;;;;;;4941934;28;20233;-74
2022/03/05 14:48:07;;;;;;;6.03;3.87;;;;;;;;;;4946399;28;20245;-73
2022/03/05 14:50:36;;;;;;;3.87;3.40;;;;;;;;;;4958750;28;20225;-75
2022/03/05 14:53:02;;;;;;;4.20;3.80;;;;;;;;;;4947760;28;20228;-73
2022/03/05 14:55:28;;;;;;;3.87;3.40;;;;;;;;;;4968873;28;20237;-74